sensor_id;sensor_type;location;lat;lon;timestamp;temperature;humidity
8662;DHT22;29684;47.722;9.388;2023-09-08T00:02:29;18.50;99.90
8662;DHT22;29684;47.722;9.388;2023-09-08T00:05:14;18.40;99.90
8662;DHT22;29684;47.722;9.388;2023-09-08T00:07:58;18.40;99.90
8662;DHT22;29684;47.722;9.388;2023-09-08T00:10:42;18.30;99.90
8662;DHT22;29684;47.722;9.388;2023-09-08T00:13:26;18.30;99.90
8662;DHT22;29684;47.722;9.388;2023-09-08T00:16:10;18.30;99.90
8662;DHT22;29684;47.722;9.388;2023-09-08T00:18:54;18.30;99.90
8662;DHT22;29684;47.722;9.388;2023-09-08T00:21:38;18.40;99.90
8662;DHT22;29684;47.722;9.388;2023-09-08T00:24:22;18.50;99.90
8662;DHT22;29684;47.722;9.388;2023-09-08T00:27:07;18.50;99.90
8662;DHT22;29684;47.722;9.388;2023-09-08T00:29:51;18.60;99.90
8662;DHT22;29684;47.722;9.388;2023-09-08T00:32:36;18.70;99.90
8662;DHT22;29684;47.722;9.388;2023-09-08T00:35:20;18.60;99.90
8662;DHT22;29684;47.722;9.388;2023-09-08T00:38:04;18.40;99.90
8662;DHT22;29684;47.722;9.388;2023-09-08T00:40:48;18.30;99.90
8662;DHT22;29684;47.722;9.388;2023-09-08T00:43:33;18.20;99.90
8662;DHT22;29684;47.722;9.388;2023-09-08T00:46:18;18.10;99.90
8662;DHT22;29684;47.722;9.388;2023-09-08T00:49:02;18.00;99.90
8662;DHT22;29684;47.722;9.388;2023-09-08T00:51:47;18.00;99.90
8662;DHT22;29684;47.722;9.388;2023-09-08T00:54:32;18.00;99.90
8662;DHT22;29684;47.722;9.388;2023-09-08T00:57:16;18.00;99.90
8662;DHT22;29684;47.722;9.388;2023-09-08T01:00:00;18.20;99.90
8662;DHT22;29684;47.722;9.388;2023-09-08T01:02:45;18.20;99.90
8662;DHT22;29684;47.722;9.388;2023-09-08T01:05:29;17.90;99.90
8662;DHT22;29684;47.722;9.388;2023-09-08T01:08:14;17.80;99.90
8662;DHT22;29684;47.722;9.388;2023-09-08T01:10:58;17.60;99.90
8662;DHT22;29684;47.722;9.388;2023-09-08T01:13:43;17.50;99.90
8662;DHT22;29684;47.722;9.388;2023-09-08T01:16:27;17.50;99.90
8662;DHT22;29684;47.722;9.388;2023-09-08T01:19:13;17.60;99.90
8662;DHT22;29684;47.722;9.388;2023-09-08T01:27:58;18.00;99.90
8662;DHT22;29684;47.722;9.388;2023-09-08T01:30:44;18.00;99.90
8662;DHT22;29684;47.722;9.388;2023-09-08T01:33:51;17.90;99.90
8662;DHT22;29684;47.722;9.388;2023-09-08T01:36:35;17.70;99.90
8662;DHT22;29684;47.722;9.388;2023-09-08T01:39:19;17.50;99.90
8662;DHT22;29684;47.722;9.388;2023-09-08T01:42:03;17.50;99.90
8662;DHT22;29684;47.722;9.388;2023-09-08T01:44:47;17.50;99.90
8662;DHT22;29684;47.722;9.388;2023-09-08T01:47:32;17.50;99.90
8662;DHT22;29684;47.722;9.388;2023-09-08T01:50:17;17.50;99.90
8662;DHT22;29684;47.722;9.388;2023-09-08T01:53:05;17.50;99.90
8662;DHT22;29684;47.722;9.388;2023-09-08T01:55:50;17.40;99.90
8662;DHT22;29684;47.722;9.388;2023-09-08T01:58:34;17.40;99.90
8662;DHT22;29684;47.722;9.388;2023-09-08T02:01:18;17.40;99.90
8662;DHT22;29684;47.722;9.388;2023-09-08T02:04:02;17.30;99.90
8662;DHT22;29684;47.722;9.388;2023-09-08T02:06:46;17.50;99.90
8662;DHT22;29684;47.722;9.388;2023-09-08T02:09:36;17.40;99.90
8662;DHT22;29684;47.722;9.388;2023-09-08T02:12:21;17.30;99.90
8662;DHT22;29684;47.722;9.388;2023-09-08T02:15:06;17.10;99.90
8662;DHT22;29684;47.722;9.388;2023-09-08T02:17:53;17.10;99.90
8662;DHT22;29684;47.722;9.388;2023-09-08T02:20:39;17.00;99.90
8662;DHT22;29684;47.722;9.388;2023-09-08T02:23:23;17.10;99.90
8662;DHT22;29684;47.722;9.388;2023-09-08T02:26:07;17.10;99.90
8662;DHT22;29684;47.722;9.388;2023-09-08T02:28:51;17.10;99.90
8662;DHT22;29684;47.722;9.388;2023-09-08T02:31:35;17.10;99.90
8662;DHT22;29684;47.722;9.388;2023-09-08T02:34:19;17.10;99.90
8662;DHT22;29684;47.722;9.388;2023-09-08T02:37:03;17.20;99.90
8662;DHT22;29684;47.722;9.388;2023-09-08T02:39:48;17.20;99.90
8662;DHT22;29684;47.722;9.388;2023-09-08T02:42:32;17.20;99.90
8662;DHT22;29684;47.722;9.388;2023-09-08T02:45:16;17.20;99.90
8662;DHT22;29684;47.722;9.388;2023-09-08T02:48:00;17.20;99.90
8662;DHT22;29684;47.722;9.388;2023-09-08T02:50:44;17.20;99.90
8662;DHT22;29684;47.722;9.388;2023-09-08T02:53:28;17.00;99.90
8662;DHT22;29684;47.722;9.388;2023-09-08T02:56:12;17.00;99.90
8662;DHT22;29684;47.722;9.388;2023-09-08T02:58:56;16.90;99.90
8662;DHT22;29684;47.722;9.388;2023-09-08T03:01:40;16.90;99.90
8662;DHT22;29684;47.722;9.388;2023-09-08T03:04:24;16.90;99.90
8662;DHT22;29684;47.722;9.388;2023-09-08T03:07:08;16.80;99.90
8662;DHT22;29684;47.722;9.388;2023-09-08T03:09:53;17.00;99.90
8662;DHT22;29684;47.722;9.388;2023-09-08T03:12:37;17.10;99.90
8662;DHT22;29684;47.722;9.388;2023-09-08T03:15:21;17.00;99.90
8662;DHT22;29684;47.722;9.388;2023-09-08T03:18:06;16.80;99.90
8662;DHT22;29684;47.722;9.388;2023-09-08T03:20:51;16.70;99.90
8662;DHT22;29684;47.722;9.388;2023-09-08T03:23:39;16.50;99.90
8662;DHT22;29684;47.722;9.388;2023-09-08T03:26:24;16.30;99.90
8662;DHT22;29684;47.722;9.388;2023-09-08T03:29:08;16.20;99.90
8662;DHT22;29684;47.722;9.388;2023-09-08T03:31:52;16.20;99.90
8662;DHT22;29684;47.722;9.388;2023-09-08T03:34:36;16.30;99.90
8662;DHT22;29684;47.722;9.388;2023-09-08T03:37:26;16.30;99.90
8662;DHT22;29684;47.722;9.388;2023-09-08T03:40:10;16.20;99.90
8662;DHT22;29684;47.722;9.388;2023-09-08T03:42:55;16.20;99.90
8662;DHT22;29684;47.722;9.388;2023-09-08T03:45:39;16.30;99.90
8662;DHT22;29684;47.722;9.388;2023-09-08T03:48:24;16.40;99.90
8662;DHT22;29684;47.722;9.388;2023-09-08T03:51:08;16.50;99.90
8662;DHT22;29684;47.722;9.388;2023-09-08T03:53:52;16.40;99.90
8662;DHT22;29684;47.722;9.388;2023-09-08T03:56:36;16.20;99.90
8662;DHT22;29684;47.722;9.388;2023-09-08T03:59:20;16.10;99.90
8662;DHT22;29684;47.722;9.388;2023-09-08T04:02:05;16.10;99.90
8662;DHT22;29684;47.722;9.388;2023-09-08T04:04:49;16.10;99.90
8662;DHT22;29684;47.722;9.388;2023-09-08T04:07:34;16.10;99.90
8662;DHT22;29684;47.722;9.388;2023-09-08T04:10:18;16.10;99.90
8662;DHT22;29684;47.722;9.388;2023-09-08T04:13:02;16.20;99.90
8662;DHT22;29684;47.722;9.388;2023-09-08T04:15:46;16.30;99.90
8662;DHT22;29684;47.722;9.388;2023-09-08T04:18:30;16.40;99.90
8662;DHT22;29684;47.722;9.388;2023-09-08T04:21:14;16.40;99.90
8662;DHT22;29684;47.722;9.388;2023-09-08T04:23:58;16.40;99.90
8662;DHT22;29684;47.722;9.388;2023-09-08T04:26:42;16.50;99.90
8662;DHT22;29684;47.722;9.388;2023-09-08T04:29:27;16.60;99.90
8662;DHT22;29684;47.722;9.388;2023-09-08T04:32:11;16.70;99.90
8662;DHT22;29684;47.722;9.388;2023-09-08T04:34:55;16.70;99.90
8662;DHT22;29684;47.722;9.388;2023-09-08T04:37:39;16.60;99.90
8662;DHT22;29684;47.722;9.388;2023-09-08T04:40:24;16.60;99.90
8662;DHT22;29684;47.722;9.388;2023-09-08T04:43:08;16.50;99.90
8662;DHT22;29684;47.722;9.388;2023-09-08T04:45:53;16.30;99.90
8662;DHT22;29684;47.722;9.388;2023-09-08T04:48:37;16.30;99.90
8662;DHT22;29684;47.722;9.388;2023-09-08T04:51:21;16.40;99.90
8662;DHT22;29684;47.722;9.388;2023-09-08T04:54:05;16.50;99.90
8662;DHT22;29684;47.722;9.388;2023-09-08T04:56:49;16.50;99.90
8662;DHT22;29684;47.722;9.388;2023-09-08T04:59:33;16.40;99.90
8662;DHT22;29684;47.722;9.388;2023-09-08T05:02:17;16.30;99.90
8662;DHT22;29684;47.722;9.388;2023-09-08T05:05:02;16.20;99.90
8662;DHT22;29684;47.722;9.388;2023-09-08T05:07:47;16.10;99.90
8662;DHT22;29684;47.722;9.388;2023-09-08T05:10:32;16.10;99.90
8662;DHT22;29684;47.722;9.388;2023-09-08T05:13:17;16.30;99.90
8662;DHT22;29684;47.722;9.388;2023-09-08T05:16:01;16.20;99.90
8662;DHT22;29684;47.722;9.388;2023-09-08T05:18:54;16.00;99.90
8662;DHT22;29684;47.722;9.388;2023-09-08T05:21:39;15.80;99.90
8662;DHT22;29684;47.722;9.388;2023-09-08T05:24:24;15.80;99.90
8662;DHT22;29684;47.722;9.388;2023-09-08T05:27:10;15.80;99.90
8662;DHT22;29684;47.722;9.388;2023-09-08T05:29:54;15.80;99.90
8662;DHT22;29684;47.722;9.388;2023-09-08T05:32:38;16.10;99.90
8662;DHT22;29684;47.722;9.388;2023-09-08T05:35:22;16.30;99.90
8662;DHT22;29684;47.722;9.388;2023-09-08T05:38:06;16.50;99.90
8662;DHT22;29684;47.722;9.388;2023-09-08T05:40:50;16.70;99.90
8662;DHT22;29684;47.722;9.388;2023-09-08T05:43:34;16.70;99.90
8662;DHT22;29684;47.722;9.388;2023-09-08T05:46:18;16.80;99.90
8662;DHT22;29684;47.722;9.388;2023-09-08T05:49:02;16.90;99.90
8662;DHT22;29684;47.722;9.388;2023-09-08T05:51:47;16.90;99.90
8662;DHT22;29684;47.722;9.388;2023-09-08T05:54:31;16.90;99.90
8662;DHT22;29684;47.722;9.388;2023-09-08T05:57:15;18.00;99.90
8662;DHT22;29684;47.722;9.388;2023-09-08T05:59:59;17.00;99.90
8662;DHT22;29684;47.722;9.388;2023-09-08T06:02:43;17.10;99.90
8662;DHT22;29684;47.722;9.388;2023-09-08T06:05:27;17.00;99.90
8662;DHT22;29684;47.722;9.388;2023-09-08T06:08:11;17.20;99.90
8662;DHT22;29684;47.722;9.388;2023-09-08T06:10:55;17.20;99.90
8662;DHT22;29684;47.722;9.388;2023-09-08T06:13:39;17.10;99.90
8662;DHT22;29684;47.722;9.388;2023-09-08T06:16:23;17.10;99.90
8662;DHT22;29684;47.722;9.388;2023-09-08T06:19:07;17.20;99.90
8662;DHT22;29684;47.722;9.388;2023-09-08T06:21:51;17.40;99.90
8662;DHT22;29684;47.722;9.388;2023-09-08T06:24:35;17.40;99.90
8662;DHT22;29684;47.722;9.388;2023-09-08T06:27:19;17.40;99.90
8662;DHT22;29684;47.722;9.388;2023-09-08T06:30:04;17.50;99.90
8662;DHT22;29684;47.722;9.388;2023-09-08T06:32:48;17.40;99.90
8662;DHT22;29684;47.722;9.388;2023-09-08T06:35:32;17.70;99.90
8662;DHT22;29684;47.722;9.388;2023-09-08T06:38:17;17.70;99.90
8662;DHT22;29684;47.722;9.388;2023-09-08T06:41:08;17.80;99.90
8662;DHT22;29684;47.722;9.388;2023-09-08T06:43:52;17.90;99.90
8662;DHT22;29684;47.722;9.388;2023-09-08T06:46:37;17.90;99.90
8662;DHT22;29684;47.722;9.388;2023-09-08T06:49:21;17.90;99.90
8662;DHT22;29684;47.722;9.388;2023-09-08T06:52:05;18.00;99.90
8662;DHT22;29684;47.722;9.388;2023-09-08T06:54:49;18.00;99.90
8662;DHT22;29684;47.722;9.388;2023-09-08T06:57:33;18.10;99.90
8662;DHT22;29684;47.722;9.388;2023-09-08T07:00:18;18.30;99.90
8662;DHT22;29684;47.722;9.388;2023-09-08T07:03:01;18.50;99.90
8662;DHT22;29684;47.722;9.388;2023-09-08T07:05:46;18.80;99.90
8662;DHT22;29684;47.722;9.388;2023-09-08T07:08:30;18.90;99.90
8662;DHT22;29684;47.722;9.388;2023-09-08T07:11:14;19.20;99.90
8662;DHT22;29684;47.722;9.388;2023-09-08T07:13:58;19.40;99.90
8662;DHT22;29684;47.722;9.388;2023-09-08T07:16:42;19.50;99.90
8662;DHT22;29684;47.722;9.388;2023-09-08T07:19:27;19.80;99.90
8662;DHT22;29684;47.722;9.388;2023-09-08T07:22:11;19.90;99.90
8662;DHT22;29684;47.722;9.388;2023-09-08T07:24:55;20.00;99.90
8662;DHT22;29684;47.722;9.388;2023-09-08T07:27:39;20.10;99.90
8662;DHT22;29684;47.722;9.388;2023-09-08T07:30:23;20.20;99.90
8662;DHT22;29684;47.722;9.388;2023-09-08T07:33:07;20.30;99.90
8662;DHT22;29684;47.722;9.388;2023-09-08T07:35:51;20.30;99.90
8662;DHT22;29684;47.722;9.388;2023-09-08T07:38:35;20.40;99.90
8662;DHT22;29684;47.722;9.388;2023-09-08T07:41:20;20.40;99.90
8662;DHT22;29684;47.722;9.388;2023-09-08T07:44:04;20.60;99.90
8662;DHT22;29684;47.722;9.388;2023-09-08T07:46:48;20.70;99.90
8662;DHT22;29684;47.722;9.388;2023-09-08T07:49:35;20.80;99.90
8662;DHT22;29684;47.722;9.388;2023-09-08T07:52:20;20.90;99.90
8662;DHT22;29684;47.722;9.388;2023-09-08T07:55:04;21.00;99.90
8662;DHT22;29684;47.722;9.388;2023-09-08T07:57:49;21.10;99.90
8662;DHT22;29684;47.722;9.388;2023-09-08T08:00:34;21.40;99.90
8662;DHT22;29684;47.722;9.388;2023-09-08T08:03:18;21.40;99.90
8662;DHT22;29684;47.722;9.388;2023-09-08T08:06:02;21.60;99.90
8662;DHT22;29684;47.722;9.388;2023-09-08T08:08:46;21.50;99.90
8662;DHT22;29684;47.722;9.388;2023-09-08T08:11:30;21.70;99.90
8662;DHT22;29684;47.722;9.388;2023-09-08T08:14:14;21.60;99.90
8662;DHT22;29684;47.722;9.388;2023-09-08T08:16:58;21.60;99.90
8662;DHT22;29684;47.722;9.388;2023-09-08T08:19:42;21.50;99.90
8662;DHT22;29684;47.722;9.388;2023-09-08T08:22:27;21.70;99.90
8662;DHT22;29684;47.722;9.388;2023-09-08T08:25:12;21.80;99.90
8662;DHT22;29684;47.722;9.388;2023-09-08T08:27:59;21.90;99.90
8662;DHT22;29684;47.722;9.388;2023-09-08T08:30:44;22.10;99.90
8662;DHT22;29684;47.722;9.388;2023-09-08T08:33:28;22.20;99.90
8662;DHT22;29684;47.722;9.388;2023-09-08T08:36:13;22.20;99.90
8662;DHT22;29684;47.722;9.388;2023-09-08T08:38:58;22.30;99.90
8662;DHT22;29684;47.722;9.388;2023-09-08T08:41:42;22.60;99.90
8662;DHT22;29684;47.722;9.388;2023-09-08T08:44:26;22.50;99.90
8662;DHT22;29684;47.722;9.388;2023-09-08T08:47:11;22.50;99.90
8662;DHT22;29684;47.722;9.388;2023-09-08T08:49:59;22.60;99.90
8662;DHT22;29684;47.722;9.388;2023-09-08T08:52:44;22.80;99.90
8662;DHT22;29684;47.722;9.388;2023-09-08T08:55:30;22.80;99.90
8662;DHT22;29684;47.722;9.388;2023-09-08T08:58:14;22.90;99.90
8662;DHT22;29684;47.722;9.388;2023-09-08T09:00:59;22.90;99.90
8662;DHT22;29684;47.722;9.388;2023-09-08T09:03:46;25.10;99.90
8662;DHT22;29684;47.722;9.388;2023-09-08T09:06:32;22.90;99.90
8662;DHT22;29684;47.722;9.388;2023-09-08T09:09:17;23.00;99.90
8662;DHT22;29684;47.722;9.388;2023-09-08T09:12:01;23.30;99.90
8662;DHT22;29684;47.722;9.388;2023-09-08T09:14:47;23.30;99.90
8662;DHT22;29684;47.722;9.388;2023-09-08T09:17:35;23.70;99.90
8662;DHT22;29684;47.722;9.388;2023-09-08T09:20:20;24.00;99.90
8662;DHT22;29684;47.722;9.388;2023-09-08T09:23:04;24.20;99.90
8662;DHT22;29684;47.722;9.388;2023-09-08T09:25:49;24.30;99.90
8662;DHT22;29684;47.722;9.388;2023-09-08T09:28:33;24.00;99.90
8662;DHT22;29684;47.722;9.388;2023-09-08T09:31:17;24.00;99.90
8662;DHT22;29684;47.722;9.388;2023-09-08T09:34:03;24.30;99.90
8662;DHT22;29684;47.722;9.388;2023-09-08T09:36:50;24.20;99.90
8662;DHT22;29684;47.722;9.388;2023-09-08T09:39:34;24.40;99.90
8662;DHT22;29684;47.722;9.388;2023-09-08T09:42:18;24.50;99.90
8662;DHT22;29684;47.722;9.388;2023-09-08T09:45:04;24.60;99.90
8662;DHT22;29684;47.722;9.388;2023-09-08T09:47:48;24.80;99.90
8662;DHT22;29684;47.722;9.388;2023-09-08T09:50:38;24.50;99.90
8662;DHT22;29684;47.722;9.388;2023-09-08T09:53:25;24.70;99.90
8662;DHT22;29684;47.722;9.388;2023-09-08T09:56:10;25.00;99.90
8662;DHT22;29684;47.722;9.388;2023-09-08T09:58:55;25.00;99.90
8662;DHT22;29684;47.722;9.388;2023-09-08T10:01:41;25.30;99.90
8662;DHT22;29684;47.722;9.388;2023-09-08T10:04:27;25.40;99.90
8662;DHT22;29684;47.722;9.388;2023-09-08T10:07:13;25.00;99.90
8662;DHT22;29684;47.722;9.388;2023-09-08T10:09:58;25.20;99.90
8662;DHT22;29684;47.722;9.388;2023-09-08T10:12:49;25.20;99.90
8662;DHT22;29684;47.722;9.388;2023-09-08T10:15:36;25.00;99.90
8662;DHT22;29684;47.722;9.388;2023-09-08T10:18:22;25.20;99.90
8662;DHT22;29684;47.722;9.388;2023-09-08T10:21:07;25.60;99.90
8662;DHT22;29684;47.722;9.388;2023-09-08T10:24:22;25.70;99.90
8662;DHT22;29684;47.722;9.388;2023-09-08T10:27:11;25.80;99.90
8662;DHT22;29684;47.722;9.388;2023-09-08T10:29:56;26.00;99.90
8662;DHT22;29684;47.722;9.388;2023-09-08T10:32:40;25.90;99.90
8662;DHT22;29684;47.722;9.388;2023-09-08T10:35:27;25.80;99.90
8662;DHT22;29684;47.722;9.388;2023-09-08T10:38:32;25.80;99.90
8662;DHT22;29684;47.722;9.388;2023-09-08T10:41:25;25.50;99.90
8662;DHT22;29684;47.722;9.388;2023-09-08T10:44:14;25.80;99.90
8662;DHT22;29684;47.722;9.388;2023-09-08T10:46:59;26.20;99.90
8662;DHT22;29684;47.722;9.388;2023-09-08T10:49:43;26.40;99.90
8662;DHT22;29684;47.722;9.388;2023-09-08T10:52:27;26.80;99.90
8662;DHT22;29684;47.722;9.388;2023-09-08T10:55:12;26.70;99.90
8662;DHT22;29684;47.722;9.388;2023-09-08T10:57:59;26.80;99.90
8662;DHT22;29684;47.722;9.388;2023-09-08T11:00:45;26.90;99.90
8662;DHT22;29684;47.722;9.388;2023-09-08T11:06:26;26.70;99.90
8662;DHT22;29684;47.722;9.388;2023-09-08T11:09:14;26.80;99.90
8662;DHT22;29684;47.722;9.388;2023-09-08T11:12:01;27.30;99.90
8662;DHT22;29684;47.722;9.388;2023-09-08T11:14:48;27.20;99.90
8662;DHT22;29684;47.722;9.388;2023-09-08T11:17:33;27.30;99.90
8662;DHT22;29684;47.722;9.388;2023-09-08T11:20:26;27.30;99.90
8662;DHT22;29684;47.722;9.388;2023-09-08T11:23:11;27.20;99.90
8662;DHT22;29684;47.722;9.388;2023-09-08T11:25:56;27.20;99.90
8662;DHT22;29684;47.722;9.388;2023-09-08T11:28:41;27.10;99.90
8662;DHT22;29684;47.722;9.388;2023-09-08T11:31:26;27.30;99.90
8662;DHT22;29684;47.722;9.388;2023-09-08T11:34:11;28.10;99.90
8662;DHT22;29684;47.722;9.388;2023-09-08T11:36:57;28.30;99.90
8662;DHT22;29684;47.722;9.388;2023-09-08T11:39:42;28.40;99.90
8662;DHT22;29684;47.722;9.388;2023-09-08T11:42:27;28.50;99.90
8662;DHT22;29684;47.722;9.388;2023-09-08T11:45:16;28.40;99.90
8662;DHT22;29684;47.722;9.388;2023-09-08T11:48:07;27.90;99.90
8662;DHT22;29684;47.722;9.388;2023-09-08T11:50:54;27.90;99.90
8662;DHT22;29684;47.722;9.388;2023-09-08T11:53:39;28.00;99.90
8662;DHT22;29684;47.722;9.388;2023-09-08T11:56:24;28.30;99.90
8662;DHT22;29684;47.722;9.388;2023-09-08T11:59:08;28.10;99.90
8662;DHT22;29684;47.722;9.388;2023-09-08T12:01:53;28.10;99.90
8662;DHT22;29684;47.722;9.388;2023-09-08T12:04:37;28.50;99.90
8662;DHT22;29684;47.722;9.388;2023-09-08T12:07:21;28.80;99.90
8662;DHT22;29684;47.722;9.388;2023-09-08T12:10:10;28.50;99.90
8662;DHT22;29684;47.722;9.388;2023-09-08T12:12:55;28.50;99.90
8662;DHT22;29684;47.722;9.388;2023-09-08T12:15:44;28.80;99.90
8662;DHT22;29684;47.722;9.388;2023-09-08T12:18:39;29.30;99.90
8662;DHT22;29684;47.722;9.388;2023-09-08T12:21:23;29.40;99.90
8662;DHT22;29684;47.722;9.388;2023-09-08T12:24:08;29.40;99.90
8662;DHT22;29684;47.722;9.388;2023-09-08T12:26:57;29.30;99.90
8662;DHT22;29684;47.722;9.388;2023-09-08T12:29:41;29.40;99.90
8662;DHT22;29684;47.722;9.388;2023-09-08T12:32:26;29.30;99.90
8662;DHT22;29684;47.722;9.388;2023-09-08T12:35:12;29.50;99.90
8662;DHT22;29684;47.722;9.388;2023-09-08T12:38:02;29.70;99.90
8662;DHT22;29684;47.722;9.388;2023-09-08T12:40:46;29.50;99.90
8662;DHT22;29684;47.722;9.388;2023-09-08T12:43:31;29.70;99.90
8662;DHT22;29684;47.722;9.388;2023-09-08T12:46:17;29.70;99.90
8662;DHT22;29684;47.722;9.388;2023-09-08T12:49:02;29.70;99.90
8662;DHT22;29684;47.722;9.388;2023-09-08T12:51:46;29.60;99.90
8662;DHT22;29684;47.722;9.388;2023-09-08T12:54:30;29.80;99.90
8662;DHT22;29684;47.722;9.388;2023-09-08T12:57:14;30.20;99.90
8662;DHT22;29684;47.722;9.388;2023-09-08T12:59:58;30.50;99.90
8662;DHT22;29684;47.722;9.388;2023-09-08T13:02:44;31.10;99.90
8662;DHT22;29684;47.722;9.388;2023-09-08T13:05:28;31.40;99.90
8662;DHT22;29684;47.722;9.388;2023-09-08T13:08:12;31.80;99.90
8662;DHT22;29684;47.722;9.388;2023-09-08T13:10:59;32.70;99.90
8662;DHT22;29684;47.722;9.388;2023-09-08T13:13:43;33.20;99.90
8662;DHT22;29684;47.722;9.388;2023-09-08T13:16:27;32.50;99.90
8662;DHT22;29684;47.722;9.388;2023-09-08T13:19:11;32.90;99.90
8662;DHT22;29684;47.722;9.388;2023-09-08T13:21:55;33.80;99.90
8662;DHT22;29684;47.722;9.388;2023-09-08T13:24:40;34.30;99.90
8662;DHT22;29684;47.722;9.388;2023-09-08T13:27:25;34.40;99.90
8662;DHT22;29684;47.722;9.388;2023-09-08T13:30:13;33.50;99.90
8662;DHT22;29684;47.722;9.388;2023-09-08T13:32:58;34.10;99.90
8662;DHT22;29684;47.722;9.388;2023-09-08T13:35:42;35.10;99.90
8662;DHT22;29684;47.722;9.388;2023-09-08T13:38:26;35.60;99.90
8662;DHT22;29684;47.722;9.388;2023-09-08T13:41:10;34.00;99.90
8662;DHT22;29684;47.722;9.388;2023-09-08T13:43:55;34.00;99.90
8662;DHT22;29684;47.722;9.388;2023-09-08T13:46:43;34.30;99.90
8662;DHT22;29684;47.722;9.388;2023-09-08T13:49:27;35.70;99.90
8662;DHT22;29684;47.722;9.388;2023-09-08T13:52:12;35.70;99.90
8662;DHT22;29684;47.722;9.388;2023-09-08T13:54:56;36.70;99.90
8662;DHT22;29684;47.722;9.388;2023-09-08T13:57:40;37.60;99.90
8662;DHT22;29684;47.722;9.388;2023-09-08T14:00:24;38.70;99.90
8662;DHT22;29684;47.722;9.388;2023-09-08T14:03:08;38.80;99.90
8662;DHT22;29684;47.722;9.388;2023-09-08T14:05:53;38.50;99.90
8662;DHT22;29684;47.722;9.388;2023-09-08T14:08:37;38.50;99.90
8662;DHT22;29684;47.722;9.388;2023-09-08T14:11:22;38.10;99.90
8662;DHT22;29684;47.722;9.388;2023-09-08T14:14:06;38.80;99.90
8662;DHT22;29684;47.722;9.388;2023-09-08T14:16:51;38.60;99.90
8662;DHT22;29684;47.722;9.388;2023-09-08T14:19:35;38.70;99.90
8662;DHT22;29684;47.722;9.388;2023-09-08T14:22:19;38.90;99.90
8662;DHT22;29684;47.722;9.388;2023-09-08T14:25:03;38.80;99.90
8662;DHT22;29684;47.722;9.388;2023-09-08T14:27:48;38.70;99.40
8662;DHT22;29684;47.722;9.388;2023-09-08T14:30:34;38.90;99.90
8662;DHT22;29684;47.722;9.388;2023-09-08T14:33:19;39.90;99.20
8662;DHT22;29684;47.722;9.388;2023-09-08T14:36:03;39.50;98.60
8662;DHT22;29684;47.722;9.388;2023-09-08T14:38:48;40.30;98.20
8662;DHT22;29684;47.722;9.388;2023-09-08T14:41:32;39.50;98.70
8662;DHT22;29684;47.722;9.388;2023-09-08T14:44:16;39.70;98.30
8662;DHT22;29684;47.722;9.388;2023-09-08T14:47:00;40.60;97.40
8662;DHT22;29684;47.722;9.388;2023-09-08T14:49:46;40.30;97.10
8662;DHT22;29684;47.722;9.388;2023-09-08T14:52:30;39.30;98.00
8662;DHT22;29684;47.722;9.388;2023-09-08T14:55:15;39.50;97.50
8662;DHT22;29684;47.722;9.388;2023-09-08T14:57:58;40.40;97.10
8662;DHT22;29684;47.722;9.388;2023-09-08T15:00:44;40.00;97.20
8662;DHT22;29684;47.722;9.388;2023-09-08T15:03:31;40.20;96.90
8662;DHT22;29684;47.722;9.388;2023-09-08T15:06:15;40.60;96.50
8662;DHT22;29684;47.722;9.388;2023-09-08T15:09:00;40.40;95.90
8662;DHT22;29684;47.722;9.388;2023-09-08T15:11:44;40.80;95.50
8662;DHT22;29684;47.722;9.388;2023-09-08T15:14:28;40.80;95.00
8662;DHT22;29684;47.722;9.388;2023-09-08T15:17:12;40.40;94.90
8662;DHT22;29684;47.722;9.388;2023-09-08T15:19:57;40.50;94.90
8662;DHT22;29684;47.722;9.388;2023-09-08T15:22:42;39.90;94.70
8662;DHT22;29684;47.722;9.388;2023-09-08T15:25:26;39.80;95.30
8662;DHT22;29684;47.722;9.388;2023-09-08T15:28:10;40.60;94.70
8662;DHT22;29684;47.722;9.388;2023-09-08T15:30:55;39.80;94.90
8662;DHT22;29684;47.722;9.388;2023-09-08T15:33:39;40.10;94.20
8662;DHT22;29684;47.722;9.388;2023-09-08T15:36:23;40.60;94.10
8662;DHT22;29684;47.722;9.388;2023-09-08T15:39:07;40.40;93.80
8662;DHT22;29684;47.722;9.388;2023-09-08T15:41:51;40.20;93.40
8662;DHT22;29684;47.722;9.388;2023-09-08T15:44:35;39.50;93.70
8662;DHT22;29684;47.722;9.388;2023-09-08T15:47:19;38.90;93.90
8662;DHT22;29684;47.722;9.388;2023-09-08T15:50:04;39.20;93.70
8662;DHT22;29684;47.722;9.388;2023-09-08T15:52:52;39.30;92.80
8662;DHT22;29684;47.722;9.388;2023-09-08T15:55:36;38.70;93.80
8662;DHT22;29684;47.722;9.388;2023-09-08T15:58:21;38.40;94.70
8662;DHT22;29684;47.722;9.388;2023-09-08T16:01:05;39.20;93.60
8662;DHT22;29684;47.722;9.388;2023-09-08T16:03:50;39.90;92.90
8662;DHT22;29684;47.722;9.388;2023-09-08T16:06:34;39.60;92.50
8662;DHT22;29684;47.722;9.388;2023-09-08T16:09:19;39.30;92.90
8662;DHT22;29684;47.722;9.388;2023-09-08T16:12:03;39.70;92.40
8662;DHT22;29684;47.722;9.388;2023-09-08T16:14:47;39.20;92.60
8662;DHT22;29684;47.722;9.388;2023-09-08T16:17:31;38.70;92.70
8662;DHT22;29684;47.722;9.388;2023-09-08T16:20:16;39.30;91.80
8662;DHT22;29684;47.722;9.388;2023-09-08T16:23:01;39.10;91.80
8662;DHT22;29684;47.722;9.388;2023-09-08T16:25:47;38.70;91.90
8662;DHT22;29684;47.722;9.388;2023-09-08T16:28:31;38.30;91.90
8662;DHT22;29684;47.722;9.388;2023-09-08T16:31:15;37.10;93.30
8662;DHT22;29684;47.722;9.388;2023-09-08T16:34:00;36.50;93.80
8662;DHT22;29684;47.722;9.388;2023-09-08T16:36:44;36.90;93.50
8662;DHT22;29684;47.722;9.388;2023-09-08T16:39:28;37.50;92.60
8662;DHT22;29684;47.722;9.388;2023-09-08T16:42:13;37.10;93.00
8662;DHT22;29684;47.722;9.388;2023-09-08T16:44:57;37.10;93.10
8662;DHT22;29684;47.722;9.388;2023-09-08T16:47:41;36.60;92.70
8662;DHT22;29684;47.722;9.388;2023-09-08T16:50:25;35.90;93.00
8662;DHT22;29684;47.722;9.388;2023-09-08T16:53:09;35.30;93.20
8662;DHT22;29684;47.722;9.388;2023-09-08T16:55:53;34.80;93.90
8662;DHT22;29684;47.722;9.388;2023-09-08T16:58:37;34.80;94.30
8662;DHT22;29684;47.722;9.388;2023-09-08T17:01:21;34.60;94.80
8662;DHT22;29684;47.722;9.388;2023-09-08T17:04:06;34.60;95.00
8662;DHT22;29684;47.722;9.388;2023-09-08T17:06:53;34.30;95.40
8662;DHT22;29684;47.722;9.388;2023-09-08T17:09:37;33.80;95.50
8662;DHT22;29684;47.722;9.388;2023-09-08T17:12:21;33.40;95.20
8662;DHT22;29684;47.722;9.388;2023-09-08T17:15:07;32.40;96.70
8662;DHT22;29684;47.722;9.388;2023-09-08T17:17:51;31.30;97.10
8662;DHT22;29684;47.722;9.388;2023-09-08T17:20:35;30.60;97.70
8662;DHT22;29684;47.722;9.388;2023-09-08T17:23:19;30.00;98.50
8662;DHT22;29684;47.722;9.388;2023-09-08T17:26:04;29.20;99.50
8662;DHT22;29684;47.722;9.388;2023-09-08T17:28:48;28.80;99.90
8662;DHT22;29684;47.722;9.388;2023-09-08T17:31:32;28.40;99.90
8662;DHT22;29684;47.722;9.388;2023-09-08T17:34:19;28.10;99.90
8662;DHT22;29684;47.722;9.388;2023-09-08T17:37:06;27.70;99.90
8662;DHT22;29684;47.722;9.388;2023-09-08T17:39:50;27.30;99.90
8662;DHT22;29684;47.722;9.388;2023-09-08T17:42:35;27.20;99.90
8662;DHT22;29684;47.722;9.388;2023-09-08T17:45:19;26.90;99.90
8662;DHT22;29684;47.722;9.388;2023-09-08T17:48:04;26.80;99.90